createdAt,value
2022-11-12T00:01:20.729Z,28.70
2022-11-12T00:04:06.911Z,30.63
2022-11-12T00:06:52.142Z,31.05
2022-11-12T00:09:37.462Z,31.25
2022-11-12T00:12:22.640Z,33.20
2022-11-12T00:15:08.300Z,32.85
2022-11-12T00:17:53.645Z,37.17
2022-11-12T00:20:39.117Z,37.53
2022-11-12T00:23:24.375Z,31.65
2022-11-12T00:26:10.466Z,30.50
2022-11-12T00:28:55.797Z,30.05
2022-11-12T00:31:40.974Z,29.00
2022-11-12T00:34:26.265Z,29.13
2022-11-12T00:37:11.634Z,27.30
2022-11-12T00:39:56.750Z,27.73
2022-11-12T00:42:41.938Z,30.45
2022-11-12T00:45:27.059Z,29.02
2022-11-12T00:48:12.510Z,29.15
2022-11-12T00:51:05.831Z,29.73
2022-11-12T00:53:51.087Z,26.17
2022-11-12T00:56:36.198Z,30.60
2022-11-12T00:59:21.409Z,25.40
2022-11-12T01:02:06.560Z,27.75
2022-11-12T01:04:51.788Z,28.77
2022-11-12T01:07:37.060Z,25.70
2022-11-12T01:10:22.551Z,28.80
2022-11-12T01:13:07.864Z,28.52
2022-11-12T01:15:52.839Z,30.10
2022-11-12T01:18:38.685Z,26.23
2022-11-12T01:21:25.627Z,26.95
2022-11-12T01:24:11.717Z,26.67
2022-11-12T01:26:56.803Z,24.50
2022-11-12T01:29:42.101Z,27.27
2022-11-12T01:32:28.077Z,28.45
2022-11-12T01:35:13.393Z,27.27
2022-11-12T01:37:58.607Z,25.60
2022-11-12T01:40:43.816Z,22.75
2022-11-12T01:43:29.088Z,25.77
2022-11-12T01:46:27.686Z,24.35
2022-11-12T01:49:19.215Z,23.55
2022-11-12T01:52:17.255Z,22.65
2022-11-12T01:55:07.425Z,23.75
2022-11-12T01:57:59.647Z,25.15
2022-11-12T02:00:45.594Z,23.73
2022-11-12T02:03:31.959Z,24.95
2022-11-12T02:06:18.487Z,27.33
2022-11-12T02:09:04.299Z,24.83
2022-11-12T02:11:49.484Z,23.35
2022-11-12T02:14:35.052Z,22.35
2022-11-12T02:17:20.852Z,23.42
2022-11-12T02:20:10.562Z,23.50
2022-11-12T02:22:56.007Z,23.73
2022-11-12T02:25:41.242Z,22.65
2022-11-12T02:28:27.882Z,23.30
2022-11-12T02:31:13.595Z,23.60
2022-11-12T02:33:58.903Z,24.08
2022-11-12T02:36:43.828Z,22.52
2022-11-12T02:39:28.989Z,24.80
2022-11-12T02:42:14.272Z,24.77
2022-11-12T02:44:59.380Z,24.08
2022-11-12T02:49:57.907Z,26.80
2022-11-12T02:52:43.356Z,23.15
2022-11-12T02:55:28.587Z,24.15
2022-11-12T02:58:15.987Z,27.38
2022-11-12T03:01:01.335Z,25.08
2022-11-12T03:03:46.618Z,24.83
2022-11-12T03:06:32.025Z,25.70
2022-11-12T03:09:17.371Z,24.55
2022-11-12T03:12:02.630Z,24.52
2022-11-12T03:17:01.320Z,23.95
2022-11-12T03:19:46.251Z,22.38
2022-11-12T03:22:31.512Z,24.33
2022-11-12T03:25:16.748Z,21.85
2022-11-12T03:30:23.488Z,27.55
2022-11-12T03:33:10.966Z,26.38
2022-11-12T03:38:18.274Z,28.20
2022-11-12T03:43:17.671Z,26.33
2022-11-12T03:46:02.753Z,24.95
2022-11-12T03:48:48.092Z,27.27
2022-11-12T03:51:33.146Z,25.70
2022-11-12T03:54:20.050Z,26.33
2022-11-12T03:57:05.528Z,28.52
2022-11-12T03:59:50.658Z,23.17
2022-11-12T04:02:36.350Z,23.50
2022-11-12T04:05:40.200Z,25.92
2022-11-12T04:08:37.691Z,24.13
2022-11-12T04:11:23.403Z,26.27
2022-11-12T04:14:08.722Z,30.92
2022-11-12T04:17:12.584Z,30.15
2022-11-12T04:20:16.835Z,26.45
2022-11-12T04:23:02.804Z,28.25
2022-11-12T04:26:06.800Z,31.08
2022-11-12T04:29:10.652Z,30.73
2022-11-12T04:31:55.895Z,29.50
2022-11-12T04:34:41.289Z,33.55
2022-11-12T04:37:28.959Z,30.48
2022-11-12T04:40:33.784Z,27.00
2022-11-12T04:43:37.675Z,32.65
2022-11-12T04:46:22.954Z,35.60
2022-11-12T04:49:07.950Z,31.27
2022-11-12T04:52:11.386Z,30.10
2022-11-12T04:54:57.706Z,33.65
2022-11-12T04:57:42.874Z,33.25
2022-11-12T05:00:28.216Z,34.90
2022-11-12T05:03:13.312Z,34.22
2022-11-12T05:06:03.297Z,34.72
2022-11-12T05:08:48.624Z,35.25
2022-11-12T05:11:33.764Z,36.65
2022-11-12T05:14:19.032Z,34.20
2022-11-12T05:17:05.118Z,31.45
2022-11-12T05:19:50.101Z,32.40
2022-11-12T05:22:45.569Z,32.22
2022-11-12T05:25:33.149Z,30.23
2022-11-12T05:28:18.500Z,29.35
2022-11-12T05:31:03.895Z,31.40
2022-11-12T05:33:49.090Z,30.63
2022-11-12T05:36:34.537Z,33.88
2022-11-12T05:39:19.787Z,36.80
2022-11-12T05:42:13.092Z,38.28
2022-11-12T05:44:59.283Z,36.00
2022-11-12T05:47:44.540Z,36.53
2022-11-12T05:50:35.017Z,34.33
2022-11-12T05:53:25.326Z,35.08
2022-11-12T05:56:11.995Z,34.60
2022-11-12T05:58:57.744Z,35.85
2022-11-12T06:01:45.801Z,36.78
2022-11-12T06:04:30.708Z,43.05
2022-11-12T06:07:15.838Z,38.72
2022-11-12T06:10:01.048Z,38.95
2022-11-12T06:12:46.382Z,38.78
2022-11-12T06:15:36.505Z,43.03
2022-11-12T06:21:22.869Z,45.83
2022-11-12T06:24:08.002Z,47.55
2022-11-12T06:26:53.187Z,50.75
2022-11-12T06:29:41.417Z,52.47
2022-11-12T06:32:26.512Z,52.22
2022-11-12T06:35:11.772Z,59.65
2022-11-12T06:37:56.910Z,81.32
2022-11-12T06:40:42.832Z,67.45
2022-11-12T06:43:29.707Z,64.45
2022-11-12T06:46:16.741Z,67.25
2022-11-12T06:49:01.810Z,65.25
2022-11-12T06:51:47.159Z,80.88
2022-11-12T06:54:32.404Z,85.97
2022-11-12T06:57:17.752Z,83.32
2022-11-12T07:00:03.570Z,80.85
2022-11-12T07:02:49.160Z,80.70
2022-11-12T07:05:38.614Z,85.47
2022-11-12T07:08:24.293Z,80.32
2022-11-12T07:11:10.098Z,71.47
2022-11-12T07:13:55.450Z,71.78
2022-11-12T07:16:40.675Z,68.47
2022-11-12T07:19:26.347Z,83.65
2022-11-12T07:22:11.151Z,82.32
2022-11-12T07:24:56.068Z,78.75
2022-11-12T07:27:41.227Z,65.45
2022-11-12T07:30:26.363Z,62.08
2022-11-12T07:33:11.539Z,59.75
2022-11-12T07:36:02.870Z,67.88
2022-11-12T07:38:51.943Z,68.10
2022-11-12T07:41:36.959Z,64.35
2022-11-12T07:44:22.073Z,71.97
2022-11-12T07:47:07.160Z,76.07
2022-11-12T07:49:52.487Z,71.72
2022-11-12T07:52:37.799Z,68.30
2022-11-12T07:55:23.098Z,62.00
2022-11-12T07:58:08.354Z,58.60
2022-11-12T08:00:53.969Z,55.92
2022-11-12T08:03:39.806Z,60.58
2022-11-12T08:06:25.712Z,54.20
2022-11-12T08:09:11.257Z,52.10
2022-11-12T08:11:56.359Z,49.83
2022-11-12T08:14:41.352Z,48.30
2022-11-12T08:17:26.441Z,50.75
2022-11-12T08:20:12.927Z,50.65
2022-11-12T08:23:01.125Z,49.95
2022-11-12T08:25:46.203Z,50.22
2022-11-12T08:28:33.382Z,46.33
2022-11-12T08:31:21.303Z,47.40
2022-11-12T08:34:12.453Z,45.80
2022-11-12T08:36:58.106Z,40.85
2022-11-12T08:39:43.446Z,35.63
2022-11-12T08:42:28.839Z,32.28
2022-11-12T08:45:14.275Z,31.23
2022-11-12T08:48:01.287Z,28.20
2022-11-12T08:50:46.538Z,27.17
2022-11-12T08:53:32.033Z,30.42
2022-11-12T08:56:17.533Z,30.38
2022-11-12T08:59:07.177Z,34.42
2022-11-12T09:01:52.571Z,33.47
2022-11-12T09:04:37.817Z,28.92
2022-11-12T09:07:48.805Z,24.63
2022-11-12T09:10:29.497Z,24.15
2022-11-12T09:13:15.358Z,23.30
2022-11-12T09:16:07.688Z,25.85
2022-11-12T09:18:52.871Z,26.08
2022-11-12T09:21:38.510Z,29.25
2022-11-12T09:24:23.687Z,30.90
2022-11-12T09:27:08.689Z,33.08
2022-11-12T09:29:54.076Z,30.92
2022-11-12T09:32:39.279Z,28.50
2022-11-12T09:35:24.503Z,25.45
2022-11-12T09:38:09.716Z,25.58
2022-11-12T09:41:04.043Z,23.33
2022-11-12T09:43:53.936Z,19.42
2022-11-12T09:46:43.423Z,22.50
2022-11-12T09:49:36.023Z,19.02
2022-11-12T09:52:25.938Z,20.50
2022-11-12T09:55:32.445Z,19.75
2022-11-12T09:58:19.189Z,20.13
2022-11-12T10:01:18.514Z,17.70
2022-11-12T10:04:28.434Z,20.75
2022-11-12T10:07:38.614Z,20.60
2022-11-12T10:10:46.163Z,20.05
2022-11-12T10:13:58.884Z,17.40
2022-11-12T10:16:50.135Z,20.30
2022-11-12T10:19:54.448Z,16.13
2022-11-12T10:22:59.787Z,15.05
2022-11-12T10:25:48.604Z,14.15
2022-11-12T10:28:41.244Z,14.15
2022-11-12T10:31:26.604Z,14.35
2022-11-12T10:34:15.960Z,13.40
2022-11-12T10:37:12.022Z,13.23
2022-11-12T10:39:57.438Z,13.70
2022-11-12T10:43:04.280Z,10.93
2022-11-12T10:45:50.638Z,11.50
2022-11-12T10:48:36.634Z,8.85
2022-11-12T10:51:31.748Z,8.45
2022-11-12T10:54:26.584Z,7.75
2022-11-12T10:57:26.207Z,7.93
2022-11-12T11:00:14.453Z,7.70
2022-11-12T11:03:02.868Z,7.72
2022-11-12T11:05:59.426Z,10.77
2022-11-12T11:08:50.483Z,6.50
2022-11-12T11:11:35.740Z,8.05
2022-11-12T11:14:33.108Z,9.23
2022-11-12T11:17:18.976Z,8.75
2022-11-12T11:20:09.184Z,8.07
2022-11-12T11:23:02.429Z,7.93
2022-11-12T11:25:52.283Z,8.23
2022-11-12T11:29:25.559Z,8.18
2022-11-12T11:32:16.643Z,7.60
2022-11-12T11:35:38.831Z,8.63
2022-11-12T11:38:42.099Z,10.30
2022-11-12T11:41:48.895Z,8.95
2022-11-12T11:45:03.923Z,12.48
2022-11-12T11:48:02.664Z,10.57
2022-11-12T11:50:57.196Z,9.02
2022-11-12T11:53:51.214Z,8.20
2022-11-12T11:56:43.033Z,8.52
2022-11-12T11:59:40.920Z,11.60
2022-11-12T12:03:00.189Z,9.00
2022-11-12T12:06:10.897Z,9.32
2022-11-12T12:09:22.840Z,7.80
2022-11-12T12:12:32.174Z,8.25
2022-11-12T12:15:46.098Z,9.75
2022-11-12T12:18:45.377Z,8.80
2022-11-12T12:21:32.191Z,9.85
2022-11-12T12:24:31.224Z,12.52
2022-11-12T12:27:24.716Z,11.27
2022-11-12T12:30:25.030Z,11.25
2022-11-12T12:33:33.291Z,10.35
2022-11-12T12:36:41.340Z,10.73
2022-11-12T12:39:35.859Z,12.73
2022-11-12T12:42:37.281Z,12.35
2022-11-12T12:45:39.502Z,11.02
2022-11-12T12:48:38.199Z,12.05
2022-11-12T12:51:24.460Z,11.60
2022-11-12T12:54:34.586Z,11.23
2022-11-12T12:57:36.632Z,13.45
2022-11-12T13:00:39.638Z,13.77
2022-11-12T13:03:53.402Z,13.07
2022-11-12T13:06:45.899Z,13.23
2022-11-12T13:12:05.470Z,13.82
2022-11-12T13:14:53.538Z,13.93
2022-11-12T13:17:48.122Z,14.15
2022-11-12T13:20:36.674Z,12.43
2022-11-12T13:24:06.969Z,12.98
2022-11-12T13:26:53.630Z,12.50
2022-11-12T13:29:41.149Z,12.98
2022-11-12T13:32:35.836Z,11.15
2022-11-12T13:35:20.934Z,9.50
2022-11-12T13:38:09.223Z,11.38
2022-11-12T13:41:16.204Z,12.13
2022-11-12T13:44:06.151Z,13.40
2022-11-12T13:46:52.655Z,10.75
2022-11-12T13:49:38.168Z,10.80
2022-11-12T13:52:24.231Z,23.83
2022-11-12T13:55:18.302Z,15.45
2022-11-12T13:58:03.439Z,12.73
2022-11-12T14:01:00.462Z,11.50
2022-11-12T14:03:49.154Z,12.38
2022-11-12T14:06:39.032Z,13.32
2022-11-12T14:10:01.325Z,20.08
2022-11-12T14:13:18.978Z,16.20
2022-11-12T14:16:34.153Z,11.73
2022-11-12T14:19:29.088Z,14.60
2022-11-12T14:22:17.531Z,12.60
2022-11-12T14:25:03.559Z,10.45
2022-11-12T14:28:12.798Z,10.65
2022-11-12T14:31:00.297Z,10.95
2022-11-12T14:33:45.493Z,11.38
2022-11-12T14:36:30.928Z,10.20
2022-11-12T14:39:20.187Z,10.45
2022-11-12T14:42:05.672Z,10.98
2022-11-12T14:44:51.173Z,10.57
2022-11-12T14:47:36.044Z,10.40
2022-11-12T14:50:30.179Z,11.93
2022-11-12T14:53:25.228Z,32.40
2022-11-12T14:56:26.682Z,35.53
2022-11-12T14:59:16.372Z,26.80
2022-11-12T15:02:31.343Z,22.58
2022-11-12T15:05:21.208Z,23.55
2022-11-12T15:08:11.585Z,19.70
2022-11-12T15:11:18.764Z,21.42
2022-11-12T15:14:06.446Z,22.02
2022-11-12T15:16:53.115Z,29.65
2022-11-12T15:19:42.372Z,27.30
2022-11-12T15:22:27.812Z,26.95
2022-11-12T15:25:23.489Z,30.20
2022-11-12T15:28:22.635Z,35.30
2022-11-12T15:31:17.692Z,39.97
2022-11-12T15:34:27.628Z,37.47
2022-11-12T15:37:18.488Z,35.20
2022-11-12T15:40:14.731Z,31.30
2022-11-12T15:43:02.109Z,32.72
2022-11-12T15:45:52.622Z,27.92
2022-11-12T15:48:38.107Z,25.30
2022-11-12T15:51:23.535Z,24.85
2022-11-12T15:54:08.920Z,20.30
2022-11-12T15:56:54.942Z,21.45
2022-11-12T15:59:40.990Z,19.25
2022-11-12T16:02:26.720Z,18.70
2022-11-12T16:05:14.099Z,19.73
2022-11-12T16:07:59.716Z,17.42
2022-11-12T16:10:46.443Z,17.92
2022-11-12T16:13:36.053Z,18.05
2022-11-12T16:16:21.354Z,17.60
2022-11-12T16:19:14.326Z,18.23
2022-11-12T16:22:01.460Z,15.93
2022-11-12T16:24:46.423Z,16.75
2022-11-12T16:29:57.921Z,16.60
2022-11-12T16:32:43.730Z,18.85
2022-11-12T16:35:33.148Z,20.33
2022-11-12T16:38:18.151Z,22.92
2022-11-12T16:41:03.608Z,23.85
2022-11-12T16:43:51.952Z,21.10
2022-11-12T16:46:41.879Z,20.77
2022-11-12T16:49:27.482Z,16.88
2022-11-12T16:52:12.872Z,19.65
2022-11-12T16:55:04.140Z,26.20
2022-11-12T16:57:50.039Z,33.92
2022-11-12T17:00:35.431Z,31.27
2022-11-12T17:03:20.947Z,35.70
2022-11-12T17:06:06.501Z,35.80
2022-11-12T17:08:54.919Z,39.00
2022-11-12T17:11:40.230Z,44.85
2022-11-12T17:14:28.390Z,48.03
2022-11-12T17:17:13.895Z,46.70
2022-11-12T17:19:59.220Z,49.47
2022-11-12T17:22:45.005Z,54.30
2022-11-12T17:25:29.951Z,57.30
2022-11-12T17:28:15.396Z,57.08
2022-11-12T17:31:06.056Z,56.30
2022-11-12T17:33:52.983Z,55.22
2022-11-12T17:36:43.310Z,54.08
2022-11-12T17:39:28.815Z,55.17
2022-11-12T17:42:14.166Z,57.83
2022-11-12T17:44:59.431Z,54.13
2022-11-12T17:47:44.831Z,57.67
2022-11-12T17:50:30.076Z,46.00
2022-11-12T17:53:15.972Z,64.97
2022-11-12T17:56:01.808Z,96.68
2022-11-12T17:58:49.034Z,103.13
2022-11-12T18:01:35.067Z,150.45
2022-11-12T18:04:22.439Z,374.67
2022-11-12T18:07:09.244Z,119.45
2022-11-12T18:09:54.982Z,83.10
2022-11-12T18:12:40.666Z,46.78
2022-11-12T18:15:26.159Z,46.55
2022-11-12T18:18:11.405Z,46.25
2022-11-12T18:20:56.746Z,48.28
2022-11-12T18:23:44.014Z,53.38
2022-11-12T18:26:28.987Z,54.67
2022-11-12T18:29:14.236Z,50.08
2022-11-12T18:31:59.586Z,49.53
2022-11-12T18:34:45.182Z,56.10
2022-11-12T18:37:30.179Z,56.88
2022-11-12T18:40:15.950Z,70.60
2022-11-12T18:43:01.446Z,60.20
2022-11-12T18:45:54.520Z,54.38
2022-11-12T18:48:40.430Z,44.15
2022-11-12T18:51:26.076Z,177.77
2022-11-12T18:54:11.595Z,96.63
2022-11-12T18:56:56.711Z,217.98
2022-11-12T18:59:41.991Z,223.85
2022-11-12T19:02:27.406Z,200.68
2022-11-12T19:05:12.703Z,219.38
2022-11-12T19:07:58.345Z,307.08
2022-11-12T19:10:43.455Z,144.55
2022-11-12T19:13:30.047Z,72.97
2022-11-12T19:16:19.504Z,100.55
2022-11-12T19:19:04.583Z,117.22
2022-11-12T19:21:50.110Z,57.08
2022-11-12T19:24:37.574Z,59.28
2022-11-12T19:27:23.236Z,53.25
2022-11-12T19:30:09.467Z,57.55
2022-11-12T19:32:54.500Z,66.88
2022-11-12T19:35:40.682Z,60.20
2022-11-12T19:38:26.160Z,63.60
2022-11-12T19:41:19.084Z,63.03
2022-11-12T19:44:04.879Z,57.72
2022-11-12T19:46:50.133Z,71.07
2022-11-12T19:49:35.476Z,79.78
2022-11-12T19:52:21.948Z,73.22
2022-11-12T19:55:07.729Z,73.03
2022-11-12T19:57:52.641Z,66.95
2022-11-12T20:00:38.031Z,76.53
2022-11-12T20:03:25.071Z,77.82
2022-11-12T20:06:11.435Z,85.78
2022-11-12T20:09:03.872Z,100.45
2022-11-12T20:11:53.706Z,88.85
2022-11-12T20:14:38.978Z,84.45
2022-11-12T20:17:24.495Z,83.00
2022-11-12T20:20:10.397Z,84.25
2022-11-12T20:22:55.866Z,84.88
2022-11-12T20:25:41.047Z,160.30
2022-11-12T20:28:26.360Z,135.15
2022-11-12T20:31:20.313Z,124.18
2022-11-12T20:34:05.616Z,114.13
2022-11-12T20:36:50.843Z,106.43
2022-11-12T20:39:35.984Z,81.40
2022-11-12T20:42:21.229Z,73.70
2022-11-12T20:45:06.797Z,70.65
2022-11-12T20:47:51.676Z,86.30
2022-11-12T20:50:37.255Z,88.50
2022-11-12T20:53:22.497Z,86.45
2022-11-12T20:56:13.665Z,88.25
2022-11-12T20:58:59.237Z,82.68
2022-11-12T21:01:44.801Z,78.18
2022-11-12T21:04:30.244Z,78.57
2022-11-12T21:07:15.513Z,108.45
2022-11-12T21:10:00.630Z,148.85
2022-11-12T21:12:46.036Z,142.63
2022-11-12T21:15:31.519Z,131.55
2022-11-12T21:18:17.623Z,141.18
2022-11-12T21:21:09.488Z,141.13
2022-11-12T21:23:54.911Z,140.85
2022-11-12T21:26:40.383Z,140.82
2022-11-12T21:29:25.723Z,122.88
2022-11-12T21:32:10.987Z,134.27
2022-11-12T21:34:56.689Z,107.78
2022-11-12T21:37:41.972Z,91.40
2022-11-12T21:40:27.124Z,92.30
2022-11-12T21:43:12.362Z,96.38
2022-11-12T21:45:57.883Z,99.78
2022-11-12T21:48:44.184Z,94.57
2022-11-12T21:51:31.665Z,100.53
2022-11-12T21:54:16.591Z,96.00
2022-11-12T21:57:01.881Z,92.70
2022-11-12T21:59:47.151Z,95.35
2022-11-12T22:02:32.549Z,88.80
2022-11-12T22:05:17.923Z,81.07
2022-11-12T22:08:03.095Z,82.32
2022-11-12T22:10:48.362Z,87.75
2022-11-12T22:13:34.304Z,81.38
2022-11-12T22:16:24.854Z,84.07
2022-11-12T22:19:11.289Z,89.43
2022-11-12T22:21:56.551Z,89.97
2022-11-12T22:24:41.877Z,82.10
2022-11-12T22:29:53.563Z,92.03
2022-11-12T22:32:38.821Z,90.25
2022-11-12T22:35:23.932Z,84.05
2022-11-12T22:38:09.228Z,78.43
2022-11-12T22:41:01.064Z,88.13
2022-11-12T22:43:51.353Z,83.97
2022-11-12T22:46:36.686Z,81.60
2022-11-12T22:49:21.844Z,78.53
2022-11-12T22:52:07.064Z,76.80
2022-11-12T22:54:52.292Z,64.25
2022-11-12T22:57:37.354Z,71.53
2022-11-12T23:00:31.848Z,75.10
2022-11-12T23:03:17.195Z,65.55
2022-11-12T23:06:05.703Z,65.65
2022-11-12T23:08:52.861Z,65.28
2022-11-12T23:11:38.372Z,61.58
2022-11-12T23:14:23.642Z,70.82
2022-11-12T23:17:08.763Z,66.50
2022-11-12T23:19:54.610Z,54.25
2022-11-12T23:22:40.293Z,52.30
2022-11-12T23:25:25.637Z,49.22
2022-11-12T23:28:11.151Z,62.25
2022-11-12T23:30:56.378Z,62.33
2022-11-12T23:33:45.751Z,48.10
2022-11-12T23:36:31.647Z,61.90
2022-11-12T23:39:16.671Z,46.10
2022-11-12T23:42:01.759Z,52.80
2022-11-12T23:44:46.956Z,53.65
2022-11-12T23:47:31.906Z,56.75
2022-11-12T23:50:17.385Z,47.13
2022-11-12T23:53:02.637Z,52.30
2022-11-12T23:55:47.942Z,46.25
2022-11-12T23:58:33.471Z,52.15
